Time;durP1;ratioP1;P1;durP2;ratioP2;P2;SDS_P1;SDS_P2;PMS_P1;PMS_P2;Temp;Humidity;BMP_temperature;BMP_pressure;BME280_temperature;BME280_humidity;BME280_pressure;Samples;Min_cycle;Max_cycle;Signal;HPM_P1;HPM_P2
2022/07/04 00:00:57;;;;;;;7.18;1.77;;;;;;;;;;4798692;29;20043;-86
2022/07/04 00:04:56;;;;;;;6.43;1.70;;;;;;;;;;4860603;29;20056;-85
2022/07/04 00:09:06;;;;;;;3.92;1.85;;;;;;;;;;4935484;29;20155;-85
2022/07/04 00:12:24;;;;;;;6.68;1.60;;;;;;;;;;4856382;29;20146;-85
2022/07/04 00:15:30;;;;;;;4.72;2.10;;;;;;;;;;4835435;29;20544;-85
2022/07/04 00:19:22;;;;;;;;;;;;;;;;;;4815781;29;20128;-85
2022/07/04 00:23:48;;;;;;;6.28;1.98;;;;;;;;;;4861220;29;20024;-85
2022/07/04 00:26:46;;;;;;;;;;;;;;;;;;4860975;29;20073;-85
2022/07/04 00:29:30;;;;;;;3.92;1.70;;;;;;;;;;4861903;29;19927;-83
2022/07/04 00:32:02;;;;;;;5.22;1.70;;;;;;;;;;4858094;29;20520;-83
2022/07/04 00:52:40;;;;;;;6.82;2.10;;;;;;;;;;4962310;28;20034;-83
2022/07/04 00:55:17;;;;;;;5.72;2.03;;;;;;;;;;4983060;28;20084;-83
2022/07/04 00:57:45;;;;;;;5.00;1.73;;;;;;;;;;4999177;28;20415;-83
2022/07/04 01:00:38;;;;;;;7.28;2.20;;;;;;;;;;4996994;28;20069;-83
2022/07/04 01:03:09;;;;;;;6.93;1.83;;;;;;;;;;4980294;28;20419;-83
2022/07/04 01:05:39;;;;;;;5.03;1.92;;;;;;;;;;4999473;28;20141;-83
2022/07/04 02:17:34;;;;;;;8.15;4.55;;;;;;;;;;5019168;28;20506;-91
2022/07/04 02:20:08;;;;;;;12.82;5.65;;;;;;;;;;5013361;28;20696;-83
2022/07/04 02:22:35;;;;;;;8.60;5.32;;;;;;;;;;4979943;28;21026;-83
2022/07/04 02:52:49;;;;;;;10.52;5.03;;;;;;;;;;5018228;28;20057;-83
2022/07/04 02:55:17;;;;;;;9.10;5.30;;;;;;;;;;4998940;28;20428;-83
2022/07/04 02:57:45;;;;;;;9.05;5.47;;;;;;;;;;5016940;28;20056;-82
2022/07/04 03:00:14;;;;;;;9.02;4.93;;;;;;;;;;5010650;28;20046;-82
2022/07/04 03:40:04;;;;;;;7.57;4.40;;;;;;;;;;5016718;28;20115;-88
2022/07/04 03:42:31;;;;;;;9.27;4.53;;;;;;;;;;4984922;28;20041;-82
2022/07/04 03:44:59;;;;;;;11.02;5.35;;;;;;;;;;4998936;28;20496;-83
2022/07/04 03:47:27;;;;;;;9.35;4.75;;;;;;;;;;5015949;28;20034;-83
2022/07/04 03:49:55;;;;;;;9.18;4.60;;;;;;;;;;5015827;28;20045;-83
2022/07/04 03:52:27;;;;;;;9.70;5.10;;;;;;;;;;5013447;28;20496;-82
2022/07/04 03:55:22;;;;;;;8.82;4.72;;;;;;;;;;5007947;28;20037;-82
2022/07/04 03:57:49;;;;;;;7.20;4.53;;;;;;;;;;5003815;28;20044;-82
2022/07/04 04:00:17;;;;;;;7.47;4.63;;;;;;;;;;4981456;28;20046;-82
2022/07/04 04:02:45;;;;;;;8.07;4.68;;;;;;;;;;5012947;28;20069;-82
2022/07/04 04:05:33;;;;;;;10.25;5.07;;;;;;;;;;5000205;28;20120;-83
2022/07/04 04:08:02;;;;;;;12.25;4.70;;;;;;;;;;5014018;28;20064;-83
2022/07/04 04:10:35;;;;;;;10.48;4.65;;;;;;;;;;4999209;28;20045;-82
2022/07/04 04:13:03;;;;;;;8.40;4.18;;;;;;;;;;5013491;28;20069;-83
2022/07/04 04:15:31;;;;;;;9.20;4.88;;;;;;;;;;4973378;28;20052;-83
2022/07/04 04:17:59;;;;;;;10.38;4.55;;;;;;;;;;4997088;28;20066;-83
2022/07/04 04:20:27;;;;;;;9.85;4.68;;;;;;;;;;4984399;28;20046;-82
2022/07/04 04:22:55;;;;;;;9.10;5.07;;;;;;;;;;4982216;28;20041;-83
2022/07/04 04:25:24;;;;;;;9.43;4.68;;;;;;;;;;4997444;28;20048;-83
2022/07/04 04:27:51;;;;;;;8.35;4.57;;;;;;;;;;5013121;28;20495;-83
2022/07/04 04:30:23;;;;;;;9.77;4.95;;;;;;;;;;5015332;28;20040;-83
2022/07/04 04:32:55;;;;;;;7.60;4.55;;;;;;;;;;5014434;28;20049;-82
2022/07/04 04:35:24;;;;;;;8.52;4.65;;;;;;;;;;5016824;28;20546;-83
2022/07/04 04:37:51;;;;;;;10.18;5.13;;;;;;;;;;5013476;28;20045;-83
2022/07/04 04:40:20;;;;;;;9.30;4.85;;;;;;;;;;5006076;28;20042;-82
2022/07/04 04:42:47;;;;;;;6.65;4.15;;;;;;;;;;5015942;28;20076;-83
2022/07/04 04:45:15;;;;;;;12.70;5.55;;;;;;;;;;4983570;28;20045;-83
2022/07/04 04:47:48;;;;;;;9.38;4.70;;;;;;;;;;5015182;28;20037;-83
2022/07/04 04:50:21;;;;;;;7.75;4.53;;;;;;;;;;4996937;28;20069;-82
2022/07/04 04:58:53;;;;;;;6.93;4.20;;;;;;;;;;4971658;28;20034;-86
2022/07/04 05:03:43;;;;;;;8.05;3.85;;;;;;;;;;4905568;29;20131;-87
2022/07/04 05:08:05;;;;;;;7.57;4.15;;;;;;;;;;4849398;29;20573;-86
2022/07/04 05:10:56;;;;;;;6.90;3.30;;;;;;;;;;4867638;29;20081;-85
2022/07/04 05:15:24;;;;;;;9.20;3.30;;;;;;;;;;4840683;29;20419;-84
2022/07/04 05:18:43;;;;;;;7.53;2.97;;;;;;;;;;4798718;29;20065;-81
2022/07/04 05:21:15;;;;;;;4.68;2.72;;;;;;;;;;4792870;29;20146;-82
2022/07/04 05:24:16;;;;;;;5.22;2.67;;;;;;;;;;4829848;29;20058;-81
2022/07/04 05:26:49;;;;;;;6.80;2.78;;;;;;;;;;4829925;29;20048;-82
2022/07/04 05:29:17;;;;;;;6.10;2.72;;;;;;;;;;4845182;29;20054;-82
2022/07/04 05:31:45;;;;;;;4.15;2.10;;;;;;;;;;4846891;29;20169;-82
2022/07/04 05:34:13;;;;;;;7.93;2.47;;;;;;;;;;4831198;29;20110;-82
2022/07/04 05:36:41;;;;;;;3.97;2.28;;;;;;;;;;4830733;29;20065;-82
2022/07/04 05:39:09;;;;;;;5.32;2.45;;;;;;;;;;4844729;29;20090;-82
2022/07/04 05:41:37;;;;;;;5.63;2.40;;;;;;;;;;4844328;29;20065;-82
2022/07/04 05:44:09;;;;;;;5.95;2.58;;;;;;;;;;4838130;29;20064;-82
2022/07/04 05:46:37;;;;;;;5.15;2.55;;;;;;;;;;4857065;29;20123;-82
2022/07/04 05:49:29;;;;;;;4.53;2.00;;;;;;;;;;4866374;29;20053;-82
2022/07/04 05:51:57;;;;;;;5.13;2.28;;;;;;;;;;4916847;29;20060;-82
2022/07/04 05:54:25;;;;;;;5.03;2.25;;;;;;;;;;4925328;28;20062;-82
2022/07/04 05:56:53;;;;;;;5.28;2.25;;;;;;;;;;4957413;28;20125;-82
2022/07/04 05:59:31;;;;;;;8.85;2.42;;;;;;;;;;4958934;28;20054;-82
2022/07/04 06:02:03;;;;;;;3.58;1.58;;;;;;;;;;4927069;28;20568;-82
2022/07/04 06:04:31;;;;;;;5.40;1.80;;;;;;;;;;4950387;28;20062;-82
2022/07/04 06:07:23;;;;;;;2.90;1.50;;;;;;;;;;4961420;28;20120;-83
2022/07/04 06:09:58;;;;;;;4.45;1.85;;;;;;;;;;4974616;28;20091;-85
2022/07/04 06:12:28;;;;;;;4.75;1.58;;;;;;;;;;4970419;28;20064;-83
2022/07/04 06:15:22;;;;;;;4.55;1.30;;;;;;;;;;5005525;28;20496;-83
2022/07/04 06:18:16;;;;;;;3.13;1.20;;;;;;;;;;5015780;28;20095;-83
2022/07/04 06:20:49;;;;;;;2.75;1.23;;;;;;;;;;5013960;28;20450;-83
2022/07/04 06:23:41;;;;;;;3.97;1.02;;;;;;;;;;5004807;28;20124;-83
2022/07/04 06:26:19;;;;;;;8.70;2.60;;;;;;;;;;5006726;28;20145;-83
2022/07/04 06:31:37;;;;;;;5.80;1.13;;;;;;;;;;5002452;28;20046;-83
2022/07/04 06:36:51;;;;;;;4.38;0.93;;;;;;;;;;4968180;28;20053;-83
2022/07/04 06:39:19;;;;;;;5.45;1.73;;;;;;;;;;5010913;28;20056;-83
2022/07/04 06:41:47;;;;;;;3.38;1.00;;;;;;;;;;4994656;28;20033;-83
2022/07/04 06:44:41;;;;;;;3.17;1.10;;;;;;;;;;5008200;28;20076;-83
2022/07/04 06:47:09;;;;;;;5.13;1.15;;;;;;;;;;4986501;28;20080;-83
2022/07/04 06:49:41;;;;;;;6.70;1.33;;;;;;;;;;4982391;28;20611;-83
2022/07/04 06:52:09;;;;;;;3.45;1.20;;;;;;;;;;4957768;28;20046;-84
2022/07/04 06:54:51;;;;;;;3.58;1.23;;;;;;;;;;4975226;28;20649;-84
2022/07/04 06:57:33;;;;;;;3.28;1.38;;;;;;;;;;4977973;28;20053;-84
2022/07/04 07:00:14;;;;;;;3.35;1.30;;;;;;;;;;4992292;28;20123;-83
2022/07/04 07:02:41;;;;;;;3.25;0.95;;;;;;;;;;5010060;28;20475;-83
2022/07/04 07:05:09;;;;;;;4.35;1.30;;;;;;;;;;4997146;28;20050;-83
2022/07/04 07:07:37;;;;;;;5.40;1.35;;;;;;;;;;5014999;28;20041;-83
2022/07/04 07:10:11;;;;;;;5.13;1.40;;;;;;;;;;4996011;28;20157;-83
2022/07/04 07:12:39;;;;;;;2.80;1.20;;;;;;;;;;5015506;28;20045;-83
2022/07/04 07:15:08;;;;;;;4.63;1.10;;;;;;;;;;5009123;28;20053;-83
2022/07/04 07:17:41;;;;;;;3.65;1.20;;;;;;;;;;4981753;28;20866;-83
2022/07/04 07:20:10;;;;;;;3.30;1.30;;;;;;;;;;5008216;28;20045;-83
2022/07/04 07:22:37;;;;;;;2.83;1.27;;;;;;;;;;5006331;28;20093;-83
2022/07/04 07:25:13;;;;;;;7.80;1.42;;;;;;;;;;5011657;28;20124;-83
2022/07/04 07:27:41;;;;;;;4.22;1.10;;;;;;;;;;5007749;28;20038;-83
2022/07/04 07:30:10;;;;;;;4.25;1.30;;;;;;;;;;5009436;28;20052;-83
2022/07/04 07:32:37;;;;;;;4.00;1.20;;;;;;;;;;4998529;28;20534;-83
2022/07/04 07:35:06;;;;;;;7.18;1.35;;;;;;;;;;4998274;28;20045;-83
2022/07/04 07:37:57;;;;;;;4.97;1.30;;;;;;;;;;5011516;28;20034;-83
2022/07/04 07:40:40;;;;;;;3.10;1.20;;;;;;;;;;4997126;28;20133;-84
2022/07/04 07:43:11;;;;;;;4.55;1.08;;;;;;;;;;5011557;28;20039;-83
2022/07/04 07:45:39;;;;;;;3.25;1.08;;;;;;;;;;5012805;28;20038;-83
2022/07/04 07:48:07;;;;;;;3.35;0.90;;;;;;;;;;5014733;28;20061;-83
2022/07/04 07:50:36;;;;;;;4.82;1.00;;;;;;;;;;5010319;28;20124;-83
2022/07/04 07:53:27;;;;;;;4.10;1.10;;;;;;;;;;5009982;28;20033;-83
2022/07/04 07:55:59;;;;;;;3.38;1.50;;;;;;;;;;4995338;28;20120;-83
2022/07/04 07:58:28;;;;;;;4.68;1.10;;;;;;;;;;5012901;28;20088;-83
2022/07/04 08:01:01;;;;;;;2.10;0.98;;;;;;;;;;5013446;28;20042;-83
2022/07/04 08:06:16;;;;;;;3.85;1.30;;;;;;;;;;5014278;28;20059;-84
2022/07/04 08:08:43;;;;;;;3.47;0.95;;;;;;;;;;5014488;28;20506;-83
2022/07/04 08:11:12;;;;;;;5.63;1.00;;;;;;;;;;5009862;28;20054;-83
2022/07/04 08:13:47;;;;;;;3.70;0.88;;;;;;;;;;5008143;28;20129;-83
2022/07/04 08:16:15;;;;;;;3.65;1.00;;;;;;;;;;5004593;28;20747;-83
2022/07/04 08:18:47;;;;;;;5.68;1.00;;;;;;;;;;5004678;28;20061;-84
2022/07/04 08:21:41;;;;;;;3.13;0.90;;;;;;;;;;5001157;28;20038;-85
2022/07/04 08:24:35;;;;;;;3.83;0.90;;;;;;;;;;5004477;28;20052;-85
2022/07/04 08:28:20;;;;;;;2.83;0.90;;;;;;;;;;5009578;28;20899;-84
2022/07/04 08:32:21;;;;;;;2.45;0.77;;;;;;;;;;5005408;28;20064;-83
2022/07/04 08:35:17;;;;;;;2.08;0.73;;;;;;;;;;4996264;28;20046;-84
2022/07/04 08:38:00;;;;;;;4.32;0.80;;;;;;;;;;4995344;28;20132;-84
2022/07/04 08:40:44;;;;;;;4.43;1.00;;;;;;;;;;5004632;28;20073;-84
2022/07/04 08:44:11;;;;;;;2.33;0.82;;;;;;;;;;4981236;28;20614;-85
2022/07/04 08:47:23;;;;;;;4.25;1.33;;;;;;;;;;4990040;28;20099;-84
2022/07/04 08:50:35;;;;;;;3.15;0.93;;;;;;;;;;4980490;28;20045;-85
2022/07/04 08:53:19;;;;;;;1.75;0.73;;;;;;;;;;4984744;28;20492;-85
2022/07/04 08:59:04;;;;;;;2.67;0.88;;;;;;;;;;5010040;28;20057;-85
2022/07/04 09:01:51;;;;;;;4.70;0.88;;;;;;;;;;4994505;28;20042;-86
2022/07/04 09:05:33;;;;;;;2.90;0.80;;;;;;;;;;4996440;28;20100;-84
2022/07/04 09:08:28;;;;;;;3.95;0.90;;;;;;;;;;5009051;28;20045;-85
2022/07/04 09:11:17;;;;;;;2.88;0.80;;;;;;;;;;4948578;28;20050;-85
2022/07/04 09:15:31;;;;;;;2.58;0.70;;;;;;;;;;4949621;28;20062;-85
2022/07/04 09:20:12;;;;;;;2.70;0.60;;;;;;;;;;4903027;29;20071;-84
2022/07/04 09:25:07;;;;;;;2.92;0.85;;;;;;;;;;4859381;29;20213;-84
2022/07/04 09:42:44;;;;;;;3.33;0.75;;;;;;;;;;4785380;29;20133;-84
2022/07/04 09:45:31;;;;;;;4.28;1.02;;;;;;;;;;4795261;29;20573;-85
2022/07/04 09:48:16;;;;;;;4.43;0.88;;;;;;;;;;4775725;29;20606;-85
2022/07/04 09:51:06;;;;;;;3.30;0.93;;;;;;;;;;4791050;29;20510;-86
2022/07/04 09:53:55;;;;;;;3.90;0.90;;;;;;;;;;4794401;29;20051;-85
2022/07/04 09:57:24;;;;;;;2.40;0.70;;;;;;;;;;4793275;29;20055;-85
2022/07/04 10:00:56;;;;;;;2.10;0.73;;;;;;;;;;4807209;29;20147;-85
2022/07/04 10:05:11;;;;;;;2.03;0.77;;;;;;;;;;4778837;29;20055;-85
2022/07/04 10:09:47;;;;;;;1.70;0.60;;;;;;;;;;4767016;29;20055;-85
2022/07/04 10:13:02;;;;;;;3.08;0.70;;;;;;;;;;4774266;29;20116;-85
2022/07/04 10:15:50;;;;;;;1.73;0.57;;;;;;;;;;4778268;29;20056;-85
2022/07/04 10:18:39;;;;;;;2.90;0.70;;;;;;;;;;4762676;30;20159;-85
2022/07/04 10:22:52;;;;;;;2.22;0.70;;;;;;;;;;4788122;29;20058;-85
2022/07/04 10:25:54;;;;;;;3.60;0.88;;;;;;;;;;4796135;29;20058;-85
2022/07/04 10:29:06;;;;;;;3.25;0.80;;;;;;;;;;4824330;29;20058;-85
2022/07/04 10:33:20;;;;;;;2.10;0.70;;;;;;;;;;4807222;29;20077;-85
2022/07/04 10:37:36;;;;;;;2.25;0.80;;;;;;;;;;4818549;29;20057;-85
2022/07/04 10:41:33;;;;;;;1.35;0.60;;;;;;;;;;4869153;29;20057;-84
2022/07/04 10:44:44;;;;;;;2.90;0.70;;;;;;;;;;4916935;29;20220;-85
2022/07/04 10:48:50;;;;;;;2.50;0.63;;;;;;;;;;4927801;29;20060;-85
2022/07/04 10:53:30;;;;;;;2.33;0.90;;;;;;;;;;4881789;29;20503;-85
2022/07/04 10:56:40;;;;;;;2.22;0.80;;;;;;;;;;4921953;29;20071;-85
2022/07/04 10:59:54;;;;;;;1.40;0.60;;;;;;;;;;4922776;29;20115;-85
2022/07/04 11:03:01;;;;;;;1.60;0.68;;;;;;;;;;4929421;28;20047;-85
2022/07/04 11:31:27;;;;;;;1.55;0.45;;;;;;;;;;4775428;29;20080;-83
2022/07/04 11:34:56;;;;;;;2.55;0.52;;;;;;;;;;4775658;30;20063;-83
2022/07/04 11:37:45;;;;;;;0.90;0.43;;;;;;;;;;4763501;30;20082;-84
2022/07/04 11:50:45;;;;;;;1.55;0.60;;;;;;;;;;4846365;29;20049;-85
2022/07/04 11:54:18;;;;;;;3.95;0.60;;;;;;;;;;4797886;29;20054;-83
2022/07/04 11:57:32;;;;;;;1.50;0.65;;;;;;;;;;4814667;29;20059;-83
2022/07/04 12:00:28;;;;;;;1.98;0.70;;;;;;;;;;4831910;29;20574;-83
2022/07/04 12:03:10;;;;;;;2.58;0.82;;;;;;;;;;4845821;29;20092;-83
2022/07/04 12:06:02;;;;;;;2.03;0.60;;;;;;;;;;4847496;29;20070;-83
2022/07/04 12:09:18;;;;;;;2.40;0.60;;;;;;;;;;4896258;29;20063;-83
2022/07/04 12:11:59;;;;;;;1.58;0.55;;;;;;;;;;4920343;29;20083;-83
2022/07/04 12:14:57;;;;;;;0.77;0.40;;;;;;;;;;4928711;29;20055;-83
2022/07/04 12:17:39;;;;;;;0.98;0.45;;;;;;;;;;4930643;29;20063;-83
2022/07/04 12:20:26;;;;;;;3.20;0.80;;;;;;;;;;4914902;29;20063;-83
2022/07/04 12:23:01;;;;;;;1.98;0.70;;;;;;;;;;4919937;29;20611;-82
2022/07/04 12:25:46;;;;;;;2.88;0.75;;;;;;;;;;4986970;28;20638;-83
2022/07/04 12:28:52;;;;;;;1.52;0.65;;;;;;;;;;4608354;27;15053650;-83
2022/07/04 12:31:42;;;;;;;3.88;0.73;;;;;;;;;;5110742;27;20048;-82
2022/07/04 12:34:16;;;;;;;2.67;0.68;;;;;;;;;;5108963;27;20084;-82
2022/07/04 12:36:54;;;;;;;3.13;0.85;;;;;;;;;;5108639;27;20156;-82
2022/07/04 12:39:39;;;;;;;2.58;0.63;;;;;;;;;;5108288;27;20536;-83
2022/07/04 12:42:15;;;;;;;2.80;0.88;;;;;;;;;;5106784;27;20040;-83
2022/07/04 12:44:51;;;;;;;3.22;0.88;;;;;;;;;;5101062;28;20054;-82
2022/07/04 12:47:22;;;;;;;1.83;0.67;;;;;;;;;;5103823;27;20031;-82
2022/07/04 12:50:33;;;;;;;1.20;0.63;;;;;;;;;;5112890;27;20040;-82
2022/07/04 12:53:05;;;;;;;2.78;0.80;;;;;;;;;;5109883;28;20549;-82
2022/07/04 12:55:38;;;;;;;3.58;1.00;;;;;;;;;;5112439;27;20047;-82
2022/07/04 12:58:05;;;;;;;2.72;0.90;;;;;;;;;;5111658;28;20035;-82
2022/07/04 13:00:57;;;;;;;1.73;0.77;;;;;;;;;;5110214;27;20035;-82
2022/07/04 13:03:25;;;;;;;3.13;0.90;;;;;;;;;;5109601;27;20050;-82
2022/07/04 13:05:56;;;;;;;1.27;0.70;;;;;;;;;;5125673;27;20126;-82
2022/07/04 13:08:29;;;;;;;3.70;0.88;;;;;;;;;;5108391;27;20036;-82
2022/07/04 13:14:10;;;;;;;3.97;1.23;;;;;;;;;;5112350;27;20044;-82
2022/07/04 13:16:39;;;;;;;5.75;1.10;;;;;;;;;;5109960;28;20027;-82
2022/07/04 13:19:07;;;;;;;3.97;0.80;;;;;;;;;;5110706;27;20116;-82
2022/07/04 13:21:36;;;;;;;3.35;0.80;;;;;;;;;;5104552;27;20512;-82
2022/07/04 13:24:04;;;;;;;4.53;0.68;;;;;;;;;;5109497;27;20126;-82
2022/07/04 13:26:37;;;;;;;1.58;0.88;;;;;;;;;;5109441;28;20117;-82
2022/07/04 13:29:06;;;;;;;1.67;0.65;;;;;;;;;;5109532;27;20093;-82
2022/07/04 13:31:57;;;;;;;3.63;1.30;;;;;;;;;;5089327;28;20573;-82
2022/07/04 13:35:33;;;;;;;1.83;0.90;;;;;;;;;;5109700;27;20201;-84
2022/07/04 13:39:32;;;;;;;2.83;0.95;;;;;;;;;;5114012;27;20042;-84
2022/07/04 13:44:32;;;;;;;3.10;0.80;;;;;;;;;;5043360;28;20498;-86
2022/07/04 14:02:19;;;;;;;4.20;1.33;;;;;;;;;;4962647;28;20085;-83
2022/07/04 14:04:55;;;;;;;2.45;0.82;;;;;;;;;;4963893;28;20208;-83
2022/07/04 14:07:43;;;;;;;3.42;0.80;;;;;;;;;;4932949;28;20134;-83
2022/07/04 14:10:12;;;;;;;3.22;0.90;;;;;;;;;;4937578;28;20579;-83
2022/07/04 14:13:05;;;;;;;3.53;1.08;;;;;;;;;;4963701;28;20045;-81
2022/07/04 14:16:04;;;;;;;3.92;0.85;;;;;;;;;;5007781;28;20514;-81
2022/07/04 14:18:55;;;;;;;2.88;1.02;;;;;;;;;;5045105;28;20048;-81
2022/07/04 14:21:23;;;;;;;1.98;0.80;;;;;;;;;;5048728;28;20161;-81
2022/07/04 14:24:00;;;;;;;4.65;1.10;;;;;;;;;;5062689;28;20108;-81
2022/07/04 14:26:27;;;;;;;5.78;0.90;;;;;;;;;;5063143;28;20048;-81
2022/07/04 14:28:55;;;;;;;3.65;1.30;;;;;;;;;;5089490;28;20047;-81
2022/07/04 14:31:27;;;;;;;3.05;1.10;;;;;;;;;;5095431;27;20051;-81
2022/07/04 14:33:56;;;;;;;3.15;1.08;;;;;;;;;;5095786;28;20112;-81
2022/07/04 14:36:28;;;;;;;4.38;1.67;;;;;;;;;;5093882;28;20051;-83
2022/07/04 14:39:03;;;;;;;2.88;1.00;;;;;;;;;;5091944;28;20067;-82
2022/07/04 14:41:35;;;;;;;3.20;1.13;;;;;;;;;;5093320;28;20085;-82
2022/07/04 14:44:08;;;;;;;5.63;1.15;;;;;;;;;;5095865;28;20047;-82
2022/07/04 14:46:35;;;;;;;4.78;1.05;;;;;;;;;;5086789;28;20040;-82
2022/07/04 14:49:27;;;;;;;3.15;1.45;;;;;;;;;;5095565;28;20055;-82
2022/07/04 14:52:19;;;;;;;3.42;1.17;;;;;;;;;;5097357;28;20027;-83
2022/07/04 14:54:47;;;;;;;5.45;1.23;;;;;;;;;;5101708;28;20043;-82
2022/07/04 14:57:19;;;;;;;3.95;1.30;;;;;;;;;;5095368;28;20086;-82
2022/07/04 14:59:47;;;;;;;4.38;1.10;;;;;;;;;;5095520;27;20148;-82
2022/07/04 15:02:15;;;;;;;5.57;1.25;;;;;;;;;;5094260;28;20071;-82
2022/07/04 15:04:44;;;;;;;3.75;1.00;;;;;;;;;;5092500;27;20071;-82
2022/07/04 15:07:12;;;;;;;2.92;0.95;;;;;;;;;;5094998;28;20558;-81
2022/07/04 15:10:07;;;;;;;3.65;1.00;;;;;;;;;;5097429;28;20095;-82
2022/07/04 15:12:35;;;;;;;2.65;1.10;;;;;;;;;;5091106;28;20584;-82
2022/07/04 15:15:27;;;;;;;4.15;1.30;;;;;;;;;;5103962;28;20036;-81
2022/07/04 15:18:10;;;;;;;3.33;1.20;;;;;;;;;;5092226;28;20050;-81
2022/07/04 15:26:09;;;;;;;9.48;2.42;;;;;;;;;;5097950;28;20464;-82
2022/07/04 15:28:42;;;;;;;5.28;1.30;;;;;;;;;;5090275;28;20036;-82
2022/07/04 15:34:03;;;;;;;3.75;1.13;;;;;;;;;;5093321;28;20057;-82
2022/07/04 15:36:32;;;;;;;3.08;1.35;;;;;;;;;;5093878;28;20036;-82
2022/07/04 15:39:09;;;;;;;6.35;1.13;;;;;;;;;;5098480;27;20043;-83
2022/07/04 15:41:38;;;;;;;3.10;1.13;;;;;;;;;;5095965;27;20120;-83
2022/07/04 15:44:06;;;;;;;3.47;1.00;;;;;;;;;;5077966;28;20046;-83
2022/07/04 15:49:34;;;;;;;2.28;0.77;;;;;;;;;;5094252;28;20052;-83
2022/07/04 15:52:04;;;;;;;3.40;1.10;;;;;;;;;;5098424;27;20046;-83
2022/07/04 15:54:37;;;;;;;2.83;0.75;;;;;;;;;;5101484;28;20065;-83
2022/07/04 15:57:09;;;;;;;3.17;1.10;;;;;;;;;;5100699;28;20067;-83
2022/07/04 15:59:37;;;;;;;5.45;1.80;;;;;;;;;;5092609;28;20827;-83
2022/07/04 16:02:09;;;;;;;5.38;1.35;;;;;;;;;;5093729;28;20131;-83
2022/07/04 16:04:42;;;;;;;5.07;1.33;;;;;;;;;;5103830;28;20044;-83
2022/07/04 16:07:12;;;;;;;2.50;0.73;;;;;;;;;;5109424;27;20039;-82
2022/07/04 16:09:42;;;;;;;3.50;0.90;;;;;;;;;;5098268;28;20063;-83
2022/07/04 16:12:23;;;;;;;2.95;0.80;;;;;;;;;;5095418;28;20054;-82
2022/07/04 16:14:51;;;;;;;3.50;1.23;;;;;;;;;;5108977;28;20039;-82
2022/07/04 16:17:37;;;;;;;7.97;1.35;;;;;;;;;;5110277;28;20032;-82
2022/07/04 16:20:08;;;;;;;4.57;1.10;;;;;;;;;;5100242;28;20063;-82
2022/07/04 16:22:39;;;;;;;3.28;0.95;;;;;;;;;;5121787;27;20541;-82
2022/07/04 16:25:11;;;;;;;2.40;1.20;;;;;;;;;;5102019;28;20166;-82
2022/07/04 16:27:40;;;;;;;2.85;0.70;;;;;;;;;;5105344;28;20066;-81
2022/07/04 16:30:33;;;;;;;6.53;1.05;;;;;;;;;;5091812;28;20048;-83
2022/07/04 16:33:01;;;;;;;2.72;0.95;;;;;;;;;;5091995;28;20040;-83
2022/07/04 16:35:29;;;;;;;6.10;1.33;;;;;;;;;;5090778;28;20090;-83
2022/07/04 16:38:23;;;;;;;6.57;1.20;;;;;;;;;;5092961;28;20217;-83
2022/07/04 16:40:55;;;;;;;3.88;1.23;;;;;;;;;;5092191;28;20521;-85
2022/07/04 16:43:25;;;;;;;1.20;0.73;;;;;;;;;;5090200;28;20035;-84
2022/07/04 16:45:58;;;;;;;2.90;1.10;;;;;;;;;;5078443;28;20265;-86
2022/07/04 16:49:11;;;;;;;3.35;1.10;;;;;;;;;;5089890;28;20047;-88
2022/07/04 16:52:45;;;;;;;3.05;0.90;;;;;;;;;;5039119;28;20049;-84
2022/07/04 16:59:52;;;;;;;4.00;1.23;;;;;;;;;;4998789;28;20038;-84
2022/07/04 17:07:29;;;;;;;4.20;1.20;;;;;;;;;;4918322;29;20040;-86
2022/07/04 17:11:43;;;;;;;2.92;0.95;;;;;;;;;;4851241;29;20151;-84
2022/07/04 17:14:34;;;;;;;3.25;1.50;;;;;;;;;;4857010;29;20075;-85
2022/07/04 17:17:27;;;;;;;7.32;1.40;;;;;;;;;;4845336;29;20061;-84
2022/07/04 17:20:08;;;;;;;4.07;1.20;;;;;;;;;;4838058;29;20061;-84
2022/07/04 17:22:46;;;;;;;2.88;1.13;;;;;;;;;;4846401;29;20144;-84
2022/07/04 17:25:17;;;;;;;4.93;1.20;;;;;;;;;;4890830;29;20147;-88
2022/07/04 17:27:44;;;;;;;4.05;1.25;;;;;;;;;;4945695;28;20067;-85
2022/07/04 17:30:43;;;;;;;3.60;1.20;;;;;;;;;;4932154;29;20119;-84
2022/07/04 17:34:56;;;;;;;5.75;1.20;;;;;;;;;;4907686;29;20244;-85
2022/07/04 17:37:58;;;;;;;3.60;0.85;;;;;;;;;;4980789;28;20050;-86
2022/07/04 17:40:40;;;;;;;2.95;1.00;;;;;;;;;;4991384;28;20073;-86
2022/07/04 17:43:48;;;;;;;6.05;1.25;;;;;;;;;;5013517;28;20057;-88
2022/07/04 17:51:56;;;;;;;3.45;1.20;;;;;;;;;;4967096;28;20045;-86
2022/07/04 17:56:38;;;;;;;4.38;0.90;;;;;;;;;;4899233;29;20130;-86
2022/07/04 18:00:47;;;;;;;2.80;0.90;;;;;;;;;;4872559;29;20060;-85
2022/07/04 18:04:48;;;;;;;6.05;1.98;;;;;;;;;;4816476;29;20039;-87
2022/07/04 18:07:31;;;;;;;5.22;1.02;;;;;;;;;;4815751;29;20629;-88
2022/07/04 18:16:40;;;;;;;3.10;1.13;;;;;;;;;;4792509;29;20138;-84
2022/07/04 18:24:19;;;;;;;6.53;0.93;;;;;;;;;;4806539;29;20655;-85
2022/07/04 18:29:01;;;;;;;5.10;1.33;;;;;;;;;;4868281;29;20105;-85
2022/07/04 18:31:51;;;;;;;5.00;1.35;;;;;;;;;;4904965;29;20067;-82
2022/07/04 18:34:21;;;;;;;2.53;0.93;;;;;;;;;;4937689;28;20058;-83
2022/07/04 18:36:50;;;;;;;6.03;1.00;;;;;;;;;;4942967;28;20142;-83
2022/07/04 18:39:19;;;;;;;3.97;1.05;;;;;;;;;;4944983;28;20683;-84
2022/07/04 18:44:34;;;;;;;4.53;0.82;;;;;;;;;;4958852;28;20065;-83
2022/07/04 18:47:02;;;;;;;3.92;1.00;;;;;;;;;;4975455;28;20054;-84
2022/07/04 18:49:42;;;;;;;29.65;2.28;;;;;;;;;;4993459;28;20145;-84
2022/07/04 18:52:35;;;;;;;;;;;;;;;;;;4991396;28;20482;-84
2022/07/04 18:55:09;;;;;;;3.67;1.05;;;;;;;;;;5010564;28;19925;-83
2022/07/04 18:57:37;;;;;;;3.58;0.90;;;;;;;;;;5044574;28;20048;-83
2022/07/04 19:00:30;;;;;;;3.58;1.02;;;;;;;;;;5069676;28;20092;-82
2022/07/04 19:02:57;;;;;;;6.07;1.20;;;;;;;;;;5067515;28;20050;-83
2022/07/04 19:05:29;;;;;;;7.97;1.40;;;;;;;;;;5073140;28;20065;-83
2022/07/04 19:07:58;;;;;;;2.97;1.08;;;;;;;;;;5068451;28;20434;-83
2022/07/04 19:10:27;;;;;;;3.05;0.93;;;;;;;;;;5070044;28;20071;-83
2022/07/04 19:13:19;;;;;;;4.10;0.98;;;;;;;;;;5071272;28;20048;-83
2022/07/04 19:15:48;;;;;;;3.95;1.00;;;;;;;;;;5071664;28;20059;-83
2022/07/04 19:18:15;;;;;;;4.32;0.93;;;;;;;;;;5068312;28;20038;-83
2022/07/04 19:20:43;;;;;;;4.55;1.15;;;;;;;;;;5056565;28;20059;-84
2022/07/04 19:23:11;;;;;;;2.30;1.08;;;;;;;;;;5090141;27;20040;-83
2022/07/04 19:25:40;;;;;;;2.75;1.10;;;;;;;;;;5092560;28;20391;-83
2022/07/04 19:28:24;;;;;;;3.53;1.10;;;;;;;;;;5092563;27;20047;-83
2022/07/04 19:30:51;;;;;;;3.45;1.30;;;;;;;;;;5093369;28;20450;-83
2022/07/04 19:33:25;;;;;;;3.97;1.27;;;;;;;;;;5087625;28;20108;-82
2022/07/04 19:35:57;;;;;;;4.75;1.17;;;;;;;;;;5086133;28;20053;-82
2022/07/04 19:38:25;;;;;;;14.27;1.42;;;;;;;;;;5090017;27;20048;-82
2022/07/04 19:40:53;;;;;;;3.95;1.15;;;;;;;;;;5093376;28;20035;-82
2022/07/04 19:43:22;;;;;;;6.32;1.33;;;;;;;;;;5092347;27;20413;-82
2022/07/04 19:45:56;;;;;;;3.00;1.20;;;;;;;;;;5091573;28;20726;-81
2022/07/04 19:48:23;;;;;;;2.50;0.95;;;;;;;;;;5091836;28;20108;-82
2022/07/04 19:52:28;;;;;;;5.03;1.50;;;;;;;;;;5091344;28;20031;-81
2022/07/04 19:54:27;;;;;;;4.10;1.73;;;;;;;;;;5090492;28;20054;-81
2022/07/04 19:57:00;;;;;;;2.88;1.40;;;;;;;;;;5094690;28;20075;-81
2022/07/04 19:59:33;;;;;;;3.97;1.38;;;;;;;;;;5091792;28;20118;-81
2022/07/04 20:02:33;;;;;;;3.72;1.13;;;;;;;;;;5089288;27;20165;-81
2022/07/04 20:05:00;;;;;;;5.18;1.42;;;;;;;;;;5095245;28;20047;-81
2022/07/04 20:07:38;;;;;;;6.95;1.75;;;;;;;;;;5091102;28;20035;-80
2022/07/04 20:10:11;;;;;;;4.00;1.20;;;;;;;;;;5090263;28;20799;-81
2022/07/04 20:12:45;;;;;;;3.15;1.20;;;;;;;;;;5089118;28;20088;-81
2022/07/04 20:15:14;;;;;;;2.63;1.60;;;;;;;;;;5091811;28;20044;-81
2022/07/04 20:18:06;;;;;;;5.60;1.38;;;;;;;;;;5094599;28;20063;-81
2022/07/04 20:20:59;;;;;;;3.10;1.33;;;;;;;;;;5108354;28;20120;-80
2022/07/04 20:23:27;;;;;;;4.38;1.20;;;;;;;;;;5091247;28;20477;-81
2022/07/04 20:25:55;;;;;;;3.88;1.40;;;;;;;;;;5088442;28;20043;-81
2022/07/04 20:28:30;;;;;;;5.22;1.48;;;;;;;;;;5088015;28;20068;-84
2022/07/04 20:31:00;;;;;;;7.00;1.30;;;;;;;;;;5056656;28;20523;-84
2022/07/04 20:34:29;;;;;;;2.90;1.30;;;;;;;;;;5089545;28;20051;-84
2022/07/04 20:37:22;;;;;;;5.40;1.63;;;;;;;;;;5078689;28;20154;-83
2022/07/04 20:40:10;;;;;;;5.63;1.10;;;;;;;;;;5068319;28;20036;-83
2022/07/04 20:42:40;;;;;;;5.00;1.20;;;;;;;;;;5089321;28;20044;-84
2022/07/04 20:46:08;;;;;;;2.03;1.00;;;;;;;;;;5090893;28;20062;-85
2022/07/04 20:48:59;;;;;;;5.28;1.20;;;;;;;;;;5092283;28;20056;-84
2022/07/04 20:51:45;;;;;;;3.17;1.27;;;;;;;;;;5095680;28;20051;-84
2022/07/04 20:54:14;;;;;;;5.32;1.17;;;;;;;;;;5092319;28;20386;-83
2022/07/04 20:56:48;;;;;;;4.35;1.40;;;;;;;;;;5096016;28;20519;-83
2022/07/04 20:59:15;;;;;;;4.82;1.20;;;;;;;;;;5085148;28;20044;-83
2022/07/04 21:01:47;;;;;;;4.85;1.38;;;;;;;;;;5094898;28;20040;-83
2022/07/04 21:04:15;;;;;;;4.15;1.23;;;;;;;;;;5094361;28;20635;-83
2022/07/04 21:16:11;;;;;;;5.50;1.80;;;;;;;;;;5096126;28;20045;-83
2022/07/04 21:18:40;;;;;;;4.72;1.50;;;;;;;;;;5096105;27;20040;-83
2022/07/04 21:21:08;;;;;;;5.50;2.00;;;;;;;;;;5096279;28;20147;-83
2022/07/04 21:38:19;;;;;;;2.28;1.30;;;;;;;;;;5094231;28;20032;-89
2022/07/04 21:41:01;;;;;;;3.63;1.50;;;;;;;;;;5081028;28;20482;-83
2022/07/04 22:41:23;;;;;;;5.28;1.55;;;;;;;;;;5085245;28;20228;-86
2022/07/04 23:28:42;;;;;;;3.45;1.30;;;;;;;;;;5100207;28;20088;-93